Roca, NE (68430)

2:09 AM CST on February 08, 2016 (GMT -0600)
Roca | | Change Station
CLOSE
Current Station
Personal Weather Station
Location: Roca, NE
Elevation: 1191 ft
Nearby Weather Stations
Active Advisory: Wind Advisory Active Notice: Public Information Statement

Elev 1191 ft 40.70 °N, 96.68 °W | Updated 15 seconds ago

Overcast
Overcast
32.9 °F
Feels Like 23 °F
N
14.5
Wind Variable Wind from NE
Gusts 17.1 mph

Today
High -- | Low -- °F
--% Chance of Precip.
Yesterday
High -- | Low -- °F
Precip. -- in
Pressure 30.06 in
Visibility 10.0 miles
Clouds Overcast 6000 ft
Windchill 23 °F
Dew Point 21 °F
Humidity 62%
Rainfall 0.00 in
Snow Depth Not available.
7:29 AM 5:52 PM
Waning Crescent, 0% visible
METAR KLNK 080754Z AUTO 31017G24KT 10SM OVC060 01/M07 A3004 RMK AO2 SLP179 T00111072
Pressure 30.06 in
Visibility 10.0 miles
Clouds Overcast 6000 ft
Windchill 23 °F
Dew Point 21 °F
Humidity 62%
Rainfall 0.00 in
Snow Depth Not available.
7:29 AM 5:52 PM
Waning Crescent, 0% visible
METAR KLNK 080754Z AUTO 31017G24KT 10SM OVC060 01/M07 A3004 RMK AO2 SLP179 T00111072

10-Day Weather Forecast

Almanac

Astronomy

Feb. 08, 2016 Rise Set
Actual Time
Civil Twilight
Nautical Twilight
Astronomical Twilight
Moon
Length of Visible Light
Length of Day
Tomorrow will be .
, % of the Moon is Illuminated

Today's Extremes

State Highs State Lows

Community

WunderPhotos

Upload Photos

1,891,412 photos uploaded!

WunderBlog® & News

Nearby

Air Quality

  Air Quality AQ Index Pollutant
Not available.

Snow Depth

Station Depth Elevation

Earthquake Activity

City Distance Mag. Time & Date
Minimum magnitude displayed is 2.5.

Coastal Water Temperatures

Place Temperature

Stations

Nearby Weather Stations

Station Location Temp. Windchill Dew Point Humidity Wind Precip. Elev Updated Type
                   

Watches & Warnings

Wind Advisory
Issued: 10:47 PM CST Feb. 7, 2016 – National Weather Service

... Wind Advisory remains in effect from 3 am to 5 PM CST Monday...

* timing... strong northwest winds will develop overnight and
continue through Monday afternoon.

* Winds... northwest winds of 25 to 35 mph with gusts to 45 mph.

* Impacts... winds of this magnitude will be hazardous to
motorists... especially those with high profile vehicles. In
addition... snow showers this evening and overnight may lead to
areas of blowing snow. This may create hazardous travel
conditions in some parts of the area.

Precautionary/preparedness actions...

A Wind Advisory means that sustained wind speeds between 30 to
39 mph or gusts between 45 to 57 mph are expected. Winds this
strong can make driving difficult... especially for high profile
vehicles. Use extra caution.



Fobert